Time;durP1;ratioP1;P1;durP2;ratioP2;P2;SDS_P1;SDS_P2;PMS_P1;PMS_P2;Temp;Humidity;BMP_temperature;BMP_pressure;BME280_temperature;BME280_humidity;BME280_pressure;Samples;Min_cycle;Max_cycle;Signal;HPM_P1;HPM_P2
2022/01/31 00:00:19;;;;;;;1.76;1.64;;;;;;;3.21;71.19;99377.20;458633;112;922615;-71
2022/01/31 00:01:24;;;;;;;2.04;1.70;;;;;;;3.24;71.12;99376.82;457652;114;922749;-71
2022/01/31 00:02:28;;;;;;;1.75;1.62;;;;;;;3.26;71.02;99380.12;458675;112;923034;-70
2022/01/31 00:03:34;;;;;;;1.66;1.56;;;;;;;3.26;70.92;99374.73;458581;112;923071;-70
2022/01/31 00:04:37;;;;;;;1.64;1.52;;;;;;;3.26;70.91;99372.05;459168;114;922614;-71
2022/01/31 00:05:40;;;;;;;1.71;1.61;;;;;;;3.24;70.81;99374.96;459364;114;922539;-71
2022/01/31 00:06:48;;;;;;;1.99;1.80;;;;;;;3.24;70.79;99366.05;458301;112;922502;-71
2022/01/31 00:07:48;;;;;;;1.80;1.70;;;;;;;3.23;70.81;99370.59;459469;114;922727;-71
2022/01/31 00:08:52;;;;;;;1.87;1.77;;;;;;;3.24;70.74;99360.66;459784;114;922539;-71
2022/01/31 00:09:56;;;;;;;1.62;1.52;;;;;;;3.24;70.74;99361.49;459950;114;922624;-71
2022/01/31 00:10:59;;;;;;;1.56;1.46;;;;;;;3.24;70.71;99360.66;458336;112;922541;-71
2022/01/31 00:12:07;;;;;;;1.69;1.50;;;;;;;3.23;70.68;99367.91;458633;112;930327;-71
2022/01/31 00:13:11;;;;;;;1.45;1.35;;;;;;;3.23;70.71;99350.91;458769;114;922615;-71
2022/01/31 00:14:29;;;;;;;1.56;1.46;;;;;;;3.24;70.79;99355.27;459058;112;922721;-73
2022/01/31 00:15:20;;;;;;;1.48;1.36;;;;;;;3.25;70.81;99360.44;456501;112;922703;-72
2022/01/31 00:16:26;;;;;;;1.39;1.29;;;;;;;3.27;70.58;99352.17;458036;112;922633;-70
2022/01/31 00:17:29;;;;;;;1.25;1.16;;;;;;;3.25;70.52;99352.36;459258;114;922684;-71
2022/01/31 00:18:32;;;;;;;1.48;1.36;;;;;;;3.23;70.45;99351.74;459931;114;922571;-72
2022/01/31 00:19:38;;;;;;;1.27;1.22;;;;;;;3.21;70.45;99348.41;460240;114;922615;-71
2022/01/31 00:20:41;;;;;;;1.28;1.18;;;;;;;3.19;70.45;99347.79;459312;112;923281;-71
2022/01/31 00:21:43;;;;;;;1.18;1.10;;;;;;;3.18;70.46;99340.73;459811;114;922708;-72
2022/01/31 00:22:46;;;;;;;1.55;1.37;;;;;;;3.17;70.46;99343.62;459646;114;922725;-72
2022/01/31 00:23:49;;;;;;;1.38;1.28;;;;;;;3.19;70.51;99341.56;459104;112;923436;-71
2022/01/31 00:24:52;;;;;;;1.30;1.22;;;;;;;3.19;70.49;99339.71;459178;112;922801;-70
2022/01/31 00:25:55;;;;;;;1.08;1.07;;;;;;;3.18;70.42;99329.96;458509;112;922560;-71
2022/01/31 00:26:58;;;;;;;1.14;1.04;;;;;;;3.17;70.39;99338.23;459574;114;922441;-72
2022/01/31 00:28:01;;;;;;;1.63;1.27;;;;;;;3.16;70.50;99337.39;459282;112;922627;-71
2022/01/31 00:29:05;;;;;;;1.30;1.20;;;;;;;3.16;70.44;99333.86;451503;116;922991;-71
2022/01/31 00:30:09;;;;;;;1.98;1.19;;;;;;;3.15;70.31;99340.27;451525;114;930281;-70
2022/01/31 00:31:12;;;;;;;1.31;1.22;;;;;;;3.12;70.31;99343.38;458947;112;923078;-71
2022/01/31 00:32:15;;;;;;;1.89;1.24;;;;;;;3.10;70.35;99343.56;459370;114;922635;-72
2022/01/31 00:33:19;;;;;;;1.36;1.26;;;;;;;3.10;70.41;99335.48;457130;114;922778;-70
2022/01/31 00:34:22;;;;;;;1.53;1.38;;;;;;;3.10;70.48;99342.73;458441;113;922580;-72
2022/01/31 00:35:28;;;;;;;1.24;1.12;;;;;;;3.11;70.46;99347.09;459548;114;922650;-71
2022/01/31 00:36:31;;;;;;;1.41;1.29;;;;;;;3.11;70.49;99339.02;459039;114;922803;-70
2022/01/31 00:37:34;;;;;;;1.31;1.21;;;;;;;3.11;70.42;99349.78;459080;113;922626;-72
2022/01/31 00:38:37;;;;;;;1.45;1.21;;;;;;;3.10;70.37;99342.73;458456;113;922619;-72
2022/01/31 00:39:40;;;;;;;1.14;1.08;;;;;;;3.08;70.30;99355.58;460255;114;923571;-71
2022/01/31 00:40:44;;;;;;;1.42;1.32;;;;;;;3.05;70.33;99347.88;458517;114;922645;-71
2022/01/31 00:41:47;;;;;;;1.43;1.33;;;;;;;3.02;70.35;99354.50;458681;113;922582;-71
2022/01/31 00:42:50;;;;;;;2.04;1.46;;;;;;;3.00;70.41;99347.64;459625;113;930207;-71
2022/01/31 00:44:15;;;;;;;1.43;1.33;;;;;;;2.98;70.42;99349.71;458562;114;922579;-72
2022/01/31 00:45:14;;;;;;;1.27;1.17;;;;;;;2.97;70.44;99345.35;457953;114;922561;-72
2022/01/31 00:46:13;;;;;;;1.64;1.43;;;;;;;2.96;70.46;99346.37;457862;113;922550;-71
2022/01/31 00:47:23;;;;;;;1.41;1.31;;;;;;;2.96;70.58;99351.76;458749;114;922647;-72
2022/01/31 00:48:26;;;;;;;1.38;1.28;;;;;;;2.96;70.61;99344.52;458397;114;922648;-70
2022/01/31 00:50:39;;;;;;;1.84;1.46;;;;;;;2.98;70.63;99347.02;458459;114;922688;-71
2022/01/31 00:51:41;;;;;;;1.41;1.31;;;;;;;2.98;70.60;99345.13;458220;113;923597;-71
2022/01/31 00:52:47;;;;;;;1.83;1.66;;;;;;;2.98;70.53;99334.36;458352;114;922648;-70
2022/01/31 00:53:50;;;;;;;1.37;1.24;;;;;;;2.97;70.51;99337.27;456526;114;922541;-71
2022/01/31 00:54:53;;;;;;;1.39;1.29;;;;;;;2.96;70.50;99339.13;458641;114;922559;-71
2022/01/31 00:55:55;;;;;;;1.44;1.34;;;;;;;2.94;70.55;99341.17;459358;114;922690;-71
2022/01/31 00:56:59;;;;;;;1.59;1.49;;;;;;;2.92;70.60;99340.56;456720;113;923472;-71
2022/01/31 00:58:02;;;;;;;1.87;1.51;;;;;;;2.90;70.61;99338.05;456322;114;922643;-71
2022/01/31 00:59:05;;;;;;;1.61;1.27;;;;;;;2.89;70.68;99336.38;457362;114;922402;-71
2022/01/31 01:00:10;;;;;;;1.53;1.42;;;;;;;2.90;70.72;99340.75;457371;114;922559;-71
2022/01/31 01:01:13;;;;;;;1.73;1.63;;;;;;;2.91;70.75;99346.97;458067;114;930202;-70
2022/01/31 01:02:18;;;;;;;1.44;1.34;;;;;;;2.91;70.76;99349.66;458251;113;923072;-71
2022/01/31 01:03:22;;;;;;;1.95;1.59;;;;;;;2.92;70.78;99348.64;459456;113;922741;-71
2022/01/31 01:04:24;;;;;;;1.69;1.54;;;;;;;2.92;70.77;99341.36;458792;114;922961;-70
2022/01/31 01:05:27;;;;;;;1.80;1.70;;;;;;;2.94;70.77;99346.56;459189;113;922643;-71
2022/01/31 01:06:32;;;;;;;1.69;1.59;;;;;;;2.93;70.79;99345.73;459250;113;923182;-71
2022/01/31 01:07:35;;;;;;;2.55;1.57;;;;;;;2.93;70.74;99348.42;459366;114;922654;-72
2022/01/31 01:08:38;;;;;;;1.72;1.60;;;;;;;2.93;70.70;99343.03;457076;114;922903;-71
2022/01/31 01:09:44;;;;;;;1.44;1.34;;;;;;;2.93;70.74;99347.58;458928;114;923034;-71
2022/01/31 01:10:47;;;;;;;1.82;1.52;;;;;;;2.93;70.70;99352.97;458178;114;923298;-71
2022/01/31 01:11:50;;;;;;;1.65;1.55;;;;;;;2.91;70.62;99347.80;458327;113;922678;-71
2022/01/31 01:12:54;;;;;;;1.81;1.67;;;;;;;2.90;70.68;99348.83;457656;114;922663;-70
2022/01/31 01:13:57;;;;;;;1.75;1.65;;;;;;;2.90;70.71;99350.68;456873;113;922608;-71
2022/01/31 01:15:00;;;;;;;1.66;1.56;;;;;;;2.91;70.84;99344.27;457696;113;922600;-72
2022/01/31 01:16:03;;;;;;;1.89;1.79;;;;;;;2.93;70.83;99347.58;458065;113;922998;-71
2022/01/31 01:17:07;;;;;;;2.16;1.80;;;;;;;2.93;70.84;99345.73;458321;113;923122;-72
2022/01/31 01:18:10;;;;;;;1.86;1.51;;;;;;;2.95;70.85;99348.23;458149;114;922621;-71
2022/01/31 01:19:14;;;;;;;1.72;1.53;;;;;;;2.96;70.84;99351.76;457752;113;923285;-73
2022/01/31 01:20:17;;;;;;;1.66;1.56;;;;;;;2.98;70.90;99344.33;457542;114;930351;-71
2022/01/31 01:21:20;;;;;;;1.59;1.48;;;;;;;3.01;70.88;99349.30;457179;114;922731;-72
2022/01/31 01:22:23;;;;;;;1.83;1.38;;;;;;;3.02;70.78;99348.28;457143;114;930475;-72
2022/01/31 01:23:26;;;;;;;1.78;1.64;;;;;;;3.03;70.78;99350.79;460367;113;922516;-71
2022/01/31 01:24:29;;;;;;;1.46;1.36;;;;;;;3.04;70.69;99355.12;460114;113;923082;-71
2022/01/31 01:25:33;;;;;;;1.76;1.66;;;;;;;3.04;70.67;99352.42;460106;114;922611;-71
2022/01/31 01:26:37;;;;;;;1.81;1.68;;;;;;;3.03;70.65;99350.79;457342;114;922513;-72
2022/01/31 01:27:42;;;;;;;2.03;1.84;;;;;;;3.02;70.55;99350.98;459228;113;922628;-72
2022/01/31 01:28:46;;;;;;;1.73;1.63;;;;;;;3.01;70.63;99357.38;449609;116;922821;-73
2022/01/31 01:29:50;;;;;;;2.36;1.92;;;;;;;2.99;70.66;99351.35;447162;116;922678;-72
2022/01/31 01:30:57;;;;;;;2.13;1.91;;;;;;;3.00;70.75;99347.64;443999;116;923144;-72
2022/01/31 01:32:01;;;;;;;1.73;1.63;;;;;;;3.01;70.71;99339.38;439518;117;922832;-72
2022/01/31 01:33:11;;;;;;;1.90;1.80;;;;;;;3.03;70.75;99337.33;446899;114;922684;-72
2022/01/31 01:34:11;;;;;;;1.97;1.72;;;;;;;3.04;70.64;99335.44;463884;112;923140;-72
2022/01/31 01:35:14;;;;;;;2.02;1.90;;;;;;;3.04;70.62;99340.83;455722;114;922998;-72
2022/01/31 01:36:21;;;;;;;2.17;1.97;;;;;;;3.03;70.61;99333.80;456229;112;922682;-71
2022/01/31 01:37:24;;;;;;;1.98;1.78;;;;;;;3.04;70.55;99333.58;463298;112;923042;-72
2022/01/31 01:38:29;;;;;;;2.14;1.88;;;;;;;3.03;70.50;99331.94;463953;112;922535;-71
2022/01/31 01:39:33;;;;;;;1.78;1.68;;;;;;;3.01;70.26;99339.38;464004;112;923657;-71
2022/01/31 01:40:38;;;;;;;1.84;1.74;;;;;;;2.98;70.45;99337.05;463410;112;922525;-72
2022/01/31 01:41:43;;;;;;;2.28;1.66;;;;;;;2.96;70.46;99332.91;464178;112;923298;-72
2022/01/31 01:42:47;;;;;;;1.91;1.81;;;;;;;2.93;70.51;99328.73;455529;115;922700;-71
2022/01/31 01:43:50;;;;;;;2.06;1.95;;;;;;;2.91;70.48;99328.13;455252;114;923065;-72
2022/01/31 01:44:53;;;;;;;1.76;1.66;;;;;;;2.89;70.54;99327.47;465105;112;922883;-71
2022/01/31 01:45:59;;;;;;;2.18;1.96;;;;;;;2.89;70.59;99322.09;463452;112;922630;-71
2022/01/31 01:47:05;;;;;;;1.89;1.52;;;;;;;2.88;70.62;99334.72;462969;112;922731;-71
2022/01/31 01:48:09;;;;;;;2.14;1.93;;;;;;;2.89;70.65;99324.78;464378;112;922861;-72
2022/01/31 01:49:12;;;;;;;1.87;1.69;;;;;;;2.88;70.61;99325.80;463136;112;922912;-71
2022/01/31 01:50:16;;;;;;;1.87;1.77;;;;;;;2.86;70.66;99331.41;463240;112;922652;-72
2022/01/31 01:51:19;;;;;;;2.22;2.06;;;;;;;2.88;70.73;99328.50;462963;112;923171;-72
2022/01/31 01:52:22;;;;;;;2.14;1.98;;;;;;;2.88;70.75;99329.33;464164;112;922467;-73
2022/01/31 01:53:26;;;;;;;2.16;1.75;;;;;;;2.90;70.76;99327.28;463894;112;923619;-71
2022/01/31 01:54:29;;;;;;;1.92;1.72;;;;;;;2.92;70.70;99324.41;463529;112;922512;-71
2022/01/31 01:55:33;;;;;;;1.76;1.65;;;;;;;2.92;70.69;99329.80;462905;112;922841;-71
2022/01/31 01:56:37;;;;;;;1.79;1.69;;;;;;;2.91;70.67;99326.27;463553;112;922917;-72
2022/01/31 01:57:40;;;;;;;2.16;1.98;;;;;;;2.89;70.62;99335.55;455227;114;930730;-72
2022/01/31 01:58:44;;;;;;;2.49;2.19;;;;;;;2.88;70.63;99318.56;455846;112;922618;-71
2022/01/31 01:59:47;;;;;;;4.54;2.42;;;;;;;2.88;70.72;99323.95;463729;112;922578;-72
2022/01/31 02:01:10;;;;;;;2.57;2.04;;;;;;;2.88;70.69;99318.56;463573;112;922575;-70
2022/01/31 02:02:25;;;;;;;3.27;2.41;;;;;;;2.88;70.69;99320.42;463499;112;922718;-71
2022/01/31 02:03:31;;;;;;;3.06;2.52;;;;;;;2.88;70.74;99323.11;464091;112;922509;-71
2022/01/31 02:04:34;;;;;;;2.39;2.19;;;;;;;2.88;70.76;99317.73;454619;114;922799;-70
2022/01/31 02:05:40;;;;;;;2.66;2.38;;;;;;;2.89;70.83;99320.23;448543;117;922608;-71
2022/01/31 02:06:45;;;;;;;2.43;2.23;;;;;;;2.91;70.86;99309.27;454918;115;923142;-71
2022/01/31 02:07:48;;;;;;;3.06;2.65;;;;;;;2.94;70.80;99316.95;455282;114;922954;-70
2022/01/31 02:08:52;;;;;;;2.87;2.39;;;;;;;2.96;70.79;99308.68;463174;112;922633;-71
2022/01/31 02:10:04;;;;;;;2.49;2.12;;;;;;;2.97;70.82;99297.72;463654;112;922625;-71
2022/01/31 02:11:08;;;;;;;3.13;2.68;;;;;;;2.99;70.76;99313.66;455042;115;922610;-72
2022/01/31 02:12:13;;;;;;;2.87;2.15;;;;;;;2.99;70.66;99308.27;455880;112;922701;-69
2022/01/31 02:13:18;;;;;;;1.81;1.68;;;;;;;2.98;70.57;99317.41;463417;112;922772;-70
2022/01/31 02:14:26;;;;;;;2.24;2.04;;;;;;;2.96;70.57;99317.59;452112;112;923009;-70
2022/01/31 02:15:34;;;;;;;2.26;2.06;;;;;;;2.97;70.62;99316.57;454161;112;923161;-71
2022/01/31 02:16:56;;;;;;;3.03;2.75;;;;;;;2.98;70.63;99312.02;463802;111;922696;-70
2022/01/31 02:18:01;;;;;;;3.28;2.68;;;;;;;2.98;70.60;99314.72;460381;112;922545;-71
2022/01/31 02:19:06;;;;;;;3.65;3.32;;;;;;;2.97;70.56;99307.66;454478;114;922911;-71
2022/01/31 02:20:24;;;;;;;3.23;2.91;;;;;;;2.97;70.57;99305.80;457155;112;923327;-72
2022/01/31 02:21:29;;;;;;;3.16;2.60;;;;;;;2.96;70.59;99306.83;454829;114;922704;-72
2022/01/31 02:22:32;;;;;;;2.51;2.26;;;;;;;2.95;70.67;99310.54;454168;114;923017;-70
2022/01/31 02:23:37;;;;;;;2.56;2.34;;;;;;;2.94;70.59;99306.17;456313;112;922539;-72
2022/01/31 02:24:50;;;;;;;3.43;2.86;;;;;;;2.92;70.60;99300.98;461486;112;922779;-71
2022/01/31 02:26:14;;;;;;;3.27;2.96;;;;;;;2.90;70.71;99297.67;462644;112;922683;-70
2022/01/31 02:27:34;;;;;;;3.05;2.08;;;;;;;2.90;70.67;99302.22;461825;112;922639;-70
2022/01/31 02:28:39;;;;;;;;;;;;;;;2.88;70.64;99296.19;466730;112;922564;-70
2022/01/31 02:29:42;;;;;;;2.50;2.04;;;;;;;2.87;70.72;99300.74;462961;112;922444;-70
2022/01/31 02:30:45;;;;;;;2.97;2.36;;;;;;;2.86;70.85;99299.11;463080;112;922617;-70
2022/01/31 02:31:49;;;;;;;3.18;2.67;;;;;;;2.85;70.78;99305.52;463535;112;922714;-69
2022/01/31 02:32:53;;;;;;;3.59;3.02;;;;;;;2.84;70.79;99305.70;464100;112;922620;-70
2022/01/31 02:33:55;;;;;;;3.42;2.39;;;;;;;2.83;70.87;99302.17;462962;111;922602;-69
2022/01/31 02:34:58;;;;;;;2.39;2.02;;;;;;;2.84;70.89;99295.77;463837;111;922578;-69
2022/01/31 02:36:05;;;;;;;3.51;2.03;;;;;;;2.85;70.87;99299.30;464925;112;922499;-71
2022/01/31 02:37:10;;;;;;;3.21;2.93;;;;;;;2.85;70.88;99294.74;464122;112;922953;-69
2022/01/31 02:38:13;;;;;;;3.19;2.48;;;;;;;2.87;70.96;99297.22;462966;112;922735;-70
2022/01/31 02:39:18;;;;;;;3.11;2.74;;;;;;;2.88;70.92;99296.19;461784;112;922686;-69
2022/01/31 02:40:24;;;;;;;2.51;2.31;;;;;;;2.88;70.77;99294.34;463856;112;923025;-70
2022/01/31 02:41:29;;;;;;;2.52;2.35;;;;;;;2.87;70.75;99284.59;463430;112;922822;-70
2022/01/31 02:42:32;;;;;;;2.59;2.17;;;;;;;2.86;70.78;99280.27;463163;111;923056;-70
2022/01/31 02:43:35;;;;;;;2.89;2.63;;;;;;;2.88;70.84;99282.73;464486;112;930359;-68
2022/01/31 02:44:41;;;;;;;2.82;2.59;;;;;;;2.89;70.86;99270.94;463408;112;922548;-70
2022/01/31 02:45:47;;;;;;;2.48;2.29;;;;;;;2.89;70.83;99277.16;463137;112;922682;-70
2022/01/31 02:46:52;;;;;;;3.10;2.76;;;;;;;2.88;70.81;99275.49;462861;111;923019;-72
2022/01/31 02:47:57;;;;;;;2.98;2.78;;;;;;;2.89;70.79;99273.63;463543;112;922563;-72
2022/01/31 02:49:01;;;;;;;2.95;2.68;;;;;;;2.89;70.85;99266.39;463060;112;922662;-69
2022/01/31 02:50:08;;;;;;;2.94;2.72;;;;;;;2.90;70.78;99265.37;458671;114;923255;-70
2022/01/31 02:51:12;;;;;;;3.27;2.93;;;;;;;2.89;70.68;99266.39;458539;112;922765;-71
2022/01/31 02:52:17;;;;;;;3.60;3.26;;;;;;;2.89;70.67;99277.16;454445;114;922708;-71
2022/01/31 02:53:25;;;;;;;2.78;2.54;;;;;;;2.87;70.72;99279.20;448693;116;930658;-71
2022/01/31 02:54:30;;;;;;;3.19;2.88;;;;;;;2.87;70.70;99272.98;456202;114;922845;-71
2022/01/31 02:55:33;;;;;;;3.39;3.09;;;;;;;2.86;70.73;99274.05;463329;112;922690;-69
2022/01/31 02:56:40;;;;;;;3.36;3.09;;;;;;;2.84;70.66;99271.54;464117;112;922919;-70
2022/01/31 02:57:41;;;;;;;2.91;2.64;;;;;;;2.83;70.75;99261.80;462752;112;922540;-71
2022/01/31 02:58:44;;;;;;;3.03;2.56;;;;;;;2.84;70.79;99258.08;463648;111;923343;-69
2022/01/31 02:59:47;;;;;;;2.88;2.62;;;;;;;2.86;70.80;99269.49;464063;111;922951;-70
2022/01/31 03:00:52;;;;;;;3.03;2.74;;;;;;;2.87;70.79;99259.53;455082;114;922580;-70
2022/01/31 03:01:58;;;;;;;2.94;2.72;;;;;;;2.86;70.82;99257.89;455915;112;930895;-70
2022/01/31 03:03:04;;;;;;;4.37;3.03;;;;;;;2.87;70.84;99260.36;463652;111;922517;-70
2022/01/31 03:04:07;;;;;;;2.99;2.78;;;;;;;2.89;70.78;99254.79;463266;112;922672;-71
2022/01/31 03:05:10;;;;;;;2.94;2.73;;;;;;;2.89;70.77;99265.56;463743;112;930289;-70
2022/01/31 03:06:14;;;;;;;3.76;3.39;;;;;;;2.89;70.74;99266.39;463156;112;930551;-71
2022/01/31 03:07:16;;;;;;;3.46;3.16;;;;;;;2.88;70.65;99262.03;454795;115;930842;-70
2022/01/31 03:08:20;;;;;;;5.12;4.05;;;;;;;2.87;70.54;99262.22;454575;112;922956;-69
2022/01/31 03:09:23;;;;;;;4.30;3.83;;;;;;;2.83;70.59;99266.34;464213;112;922589;-71
2022/01/31 03:10:28;;;;;;;3.90;3.59;;;;;;;2.81;70.68;99260.34;462807;112;922697;-69
2022/01/31 03:11:32;;;;;;;6.84;5.82;;;;;;;2.80;70.71;99251.44;463076;112;922607;-71
2022/01/31 03:12:43;;;;;;;5.06;4.59;;;;;;;2.79;70.69;99260.53;463202;112;922545;-70
2022/01/31 03:13:46;;;;;;;5.52;5.03;;;;;;;2.79;70.73;99254.31;463321;112;922542;-70
2022/01/31 03:14:49;;;;;;;5.03;4.21;;;;;;;2.78;70.74;99248.10;463669;112;922577;-71
2022/01/31 03:15:54;;;;;;;5.27;4.77;;;;;;;2.76;70.72;99250.14;461343;112;922909;-71
2022/01/31 03:17:17;;;;;;;12.20;11.05;;;;;;;2.77;70.67;99248.29;460499;112;923504;-71
2022/01/31 03:18:21;;;;;;;11.84;10.74;;;;;;;2.74;70.72;99251.39;463753;112;922647;-70
2022/01/31 03:19:24;;;;;;;12.33;11.13;;;;;;;2.72;70.81;99254.27;455932;114;930713;-71
2022/01/31 03:20:29;;;;;;;10.55;9.48;;;;;;;2.73;70.84;99255.94;441152;117;922595;-71
2022/01/31 03:21:32;;;;;;;6.03;5.43;;;;;;;2.74;70.83;99260.30;462819;112;923128;-70
2022/01/31 03:22:35;;;;;;;5.59;5.05;;;;;;;2.74;70.77;99262.98;462757;112;922676;-70
2022/01/31 03:23:38;;;;;;;5.75;5.21;;;;;;;2.74;70.78;99267.53;463434;111;922673;-69
2022/01/31 03:24:42;;;;;;;4.77;4.37;;;;;;;2.73;70.80;99269.39;463381;112;922570;-70
2022/01/31 03:25:46;;;;;;;5.42;4.74;;;;;;;2.72;70.75;99256.13;463464;112;923312;-69
2022/01/31 03:26:51;;;;;;;4.97;4.52;;;;;;;2.70;70.78;99258.20;462992;112;930419;-70
2022/01/31 03:27:55;;;;;;;4.34;3.99;;;;;;;2.68;70.76;99257.55;464150;112;922728;-69
2022/01/31 03:28:58;;;;;;;5.15;4.51;;;;;;;2.64;70.89;99256.30;456020;115;922875;-70
2022/01/31 03:30:01;;;;;;;5.14;4.72;;;;;;;2.62;71.06;99259.17;455243;114;930904;-70
2022/01/31 03:31:04;;;;;;;5.16;4.73;;;;;;;2.62;71.24;99253.79;463965;112;922508;-70
2022/01/31 03:32:07;;;;;;;5.31;4.79;;;;;;;2.64;71.40;99250.91;463437;112;923093;-71
2022/01/31 03:33:11;;;;;;;5.61;5.09;;;;;;;2.64;71.42;99240.14;462917;112;922886;-70
2022/01/31 03:34:14;;;;;;;4.92;4.49;;;;;;;2.64;71.33;99242.84;463721;112;922455;-69
2022/01/31 03:35:18;;;;;;;4.98;4.43;;;;;;;2.63;71.34;99244.70;463288;111;923011;-71
2022/01/31 03:36:22;;;;;;;4.71;4.35;;;;;;;2.64;71.31;99240.98;464054;112;923282;-70
2022/01/31 03:37:25;;;;;;;4.75;4.33;;;;;;;2.65;71.29;99245.31;464028;112;923048;-70
2022/01/31 03:38:28;;;;;;;5.66;4.96;;;;;;;2.65;71.26;99245.31;463775;111;930853;-71
2022/01/31 03:39:31;;;;;;;5.09;4.63;;;;;;;2.66;71.29;99240.77;462793;112;922728;-69
2022/01/31 03:40:34;;;;;;;4.51;4.11;;;;;;;2.66;71.28;99238.07;462820;112;922745;-70
2022/01/31 03:41:38;;;;;;;5.31;4.81;;;;;;;2.67;71.24;99242.43;463423;112;923067;-70
2022/01/31 03:42:41;;;;;;;5.13;4.53;;;;;;;2.67;71.29;99245.95;463701;112;923002;-70
2022/01/31 03:43:45;;;;;;;5.42;4.92;;;;;;;2.69;71.30;99235.84;463901;112;922700;-69
2022/01/31 03:44:49;;;;;;;8.51;4.76;;;;;;;2.72;71.23;99248.05;464350;112;922580;-70
2022/01/31 03:45:52;;;;;;;6.55;5.66;;;;;;;2.73;71.22;99241.64;464056;112;922625;-70
2022/01/31 03:46:58;;;;;;;5.49;5.01;;;;;;;2.74;71.15;99246.00;463736;112;922536;-70
2022/01/31 03:48:05;;;;;;;8.06;5.40;;;;;;;2.74;71.14;99244.15;463204;112;922687;-70
2022/01/31 03:49:07;;;;;;;5.54;4.93;;;;;;;2.74;71.04;99251.39;464011;112;922558;-69
2022/01/31 03:50:15;;;;;;;6.86;5.28;;;;;;;2.74;71.02;99254.08;461166;112;922605;-70
2022/01/31 03:51:18;;;;;;;5.47;4.95;;;;;;;2.73;71.02;99241.64;462607;111;922533;-69
2022/01/31 03:52:21;;;;;;;5.39;3.83;;;;;;;2.74;71.08;99251.39;463287;112;923209;-70
2022/01/31 03:53:25;;;;;;;6.03;4.92;;;;;;;2.74;71.00;99246.84;464298;112;922546;-69
2022/01/31 03:54:28;;;;;;;5.17;4.60;;;;;;;2.75;70.94;99242.29;462722;112;922744;-70
2022/01/31 03:55:31;;;;;;;4.41;4.03;;;;;;;2.75;70.94;99242.29;463008;112;923063;-70
2022/01/31 03:56:35;;;;;;;3.94;3.62;;;;;;;2.74;70.91;99243.31;458086;114;922606;-69
2022/01/31 03:57:51;;;;;;;4.04;3.63;;;;;;;2.73;70.88;99247.03;458303;114;922837;-70
2022/01/31 03:58:55;;;;;;;4.53;3.87;;;;;;;2.72;70.84;99243.50;462754;112;923122;-70
2022/01/31 04:00:00;;;;;;;4.26;3.85;;;;;;;2.72;70.81;99250.74;462868;112;922809;-70
2022/01/31 04:01:03;;;;;;;4.04;3.64;;;;;;;2.71;70.85;99255.29;463202;112;922897;-70
2022/01/31 04:02:07;;;;;;;3.59;2.92;;;;;;;2.71;70.83;99249.07;464210;112;922960;-69
2022/01/31 04:03:10;;;;;;;4.95;3.49;;;;;;;2.72;70.85;99246.19;463390;112;922754;-70
2022/01/31 04:04:13;;;;;;;4.22;3.72;;;;;;;2.73;70.80;99250.55;463206;112;930498;-70
2022/01/31 04:05:16;;;;;;;3.99;3.67;;;;;;;2.74;70.79;99252.22;463269;112;922553;-71
2022/01/31 04:06:19;;;;;;;4.40;4.00;;;;;;;2.76;70.79;99252.00;463663;112;922493;-70
2022/01/31 04:07:22;;;;;;;4.02;3.66;;;;;;;2.77;70.85;99254.51;463679;112;923114;-69
2022/01/31 04:08:25;;;;;;;4.48;4.05;;;;;;;2.80;70.92;99258.68;463208;112;922567;-70
2022/01/31 04:09:28;;;;;;;4.50;3.72;;;;;;;2.82;70.83;99265.51;463468;112;922857;-70
2022/01/31 04:10:31;;;;;;;3.47;3.17;;;;;;;2.84;70.69;99263.47;463811;112;922687;-71
2022/01/31 04:11:34;;;;;;;5.46;3.22;;;;;;;2.82;70.58;99262.81;463931;112;922765;-70
2022/01/31 04:12:37;;;;;;;4.22;3.83;;;;;;;2.80;70.48;99267.59;463658;112;923139;-70
2022/01/31 04:13:39;;;;;;;4.03;3.63;;;;;;;2.81;70.50;99265.73;463650;112;922574;-71
2022/01/31 04:14:43;;;;;;;3.91;3.61;;;;;;;2.78;70.47;99269.63;462774;112;923070;-71
2022/01/31 04:15:48;;;;;;;4.42;3.88;;;;;;;2.77;70.52;99265.27;463797;111;922528;-71
2022/01/31 04:16:53;;;;;;;4.12;3.75;;;;;;;2.77;70.57;99259.89;462779;112;930664;-70
2022/01/31 04:17:56;;;;;;;4.08;3.73;;;;;;;2.78;70.61;99264.25;463684;112;923349;-70
2022/01/31 04:18:58;;;;;;;3.62;3.33;;;;;;;2.80;70.52;99262.20;463121;111;922519;-70
2022/01/31 04:20:01;;;;;;;3.74;3.44;;;;;;;2.79;70.40;99263.23;463204;112;922519;-70
2022/01/31 04:21:04;;;;;;;3.55;3.27;;;;;;;2.79;70.30;99265.08;463091;112;923242;-71
2022/01/31 04:22:10;;;;;;;3.93;3.63;;;;;;;2.74;70.30;99262.98;464376;112;922790;-70
2022/01/31 04:23:15;;;;;;;3.97;3.67;;;;;;;2.73;70.38;99261.32;463940;112;922833;-69
2022/01/31 04:24:22;;;;;;;4.32;3.79;;;;;;;2.71;70.44;99252.59;463904;112;922738;-70
2022/01/31 04:25:42;;;;;;;4.16;3.73;;;;;;;2.71;70.44;99249.91;462835;112;930460;-70
2022/01/31 04:26:33;;;;;;;3.91;3.61;;;;;;;2.70;70.41;99250.93;460363;112;923079;-71
2022/01/31 04:27:44;;;;;;;3.96;3.66;;;;;;;2.70;70.39;99244.75;463477;112;922673;-69
2022/01/31 04:28:47;;;;;;;4.12;3.77;;;;;;;2.68;70.35;99250.31;462404;111;931028;-69
2022/01/31 04:29:49;;;;;;;3.98;3.67;;;;;;;2.68;70.45;99247.63;463948;112;922580;-70
2022/01/31 04:31:01;;;;;;;4.01;3.71;;;;;;;2.69;70.56;99235.84;463549;112;922409;-72
2022/01/31 04:32:03;;;;;;;3.83;3.53;;;;;;;2.71;70.47;99230.23;463469;112;922698;-70
2022/01/31 04:33:06;;;;;;;4.30;3.90;;;;;;;2.71;70.47;99230.23;463270;112;930800;-72
2022/01/31 04:34:09;;;;;;;4.04;3.74;;;;;;;2.71;70.44;99233.77;463928;112;922707;-71
2022/01/31 04:35:12;;;;;;;3.99;3.62;;;;;;;2.70;70.44;99232.09;464549;112;923631;-71
2022/01/31 04:36:16;;;;;;;3.42;3.14;;;;;;;2.69;70.42;99227.77;463608;112;922641;-71
2022/01/31 04:37:19;;;;;;;3.83;3.51;;;;;;;2.69;70.38;99229.63;463398;111;923061;-71
2022/01/31 04:38:23;;;;;;;4.21;3.91;;;;;;;2.67;70.37;99229.81;463397;112;922670;-70
2022/01/31 04:39:27;;;;;;;3.92;3.62;;;;;;;2.66;70.38;99222.76;462739;112;923060;-71
2022/01/31 04:40:30;;;;;;;5.24;4.08;;;;;;;2.64;70.38;99227.53;463475;111;922759;-69
2022/01/31 04:41:33;;;;;;;4.28;3.89;;;;;;;2.61;70.32;99221.69;463941;112;923084;-69
2022/01/31 04:42:36;;;;;;;4.02;3.71;;;;;;;2.57;70.28;99223.12;464662;112;922504;-72
2022/01/31 04:43:39;;;;;;;4.03;3.63;;;;;;;2.53;70.32;99214.62;464327;112;922592;-70
2022/01/31 04:44:42;;;;;;;5.74;4.53;;;;;;;2.50;70.40;99213.14;463635;111;922898;-70
2022/01/31 04:45:48;;;;;;;4.81;4.16;;;;;;;2.48;70.42;99209.00;463070;112;922555;-69
2022/01/31 04:46:52;;;;;;;6.99;5.93;;;;;;;2.46;70.46;99211.05;463134;112;923647;-70
2022/01/31 04:47:55;;;;;;;9.91;6.18;;;;;;;2.43;70.46;99206.88;463087;112;922646;-72
2022/01/31 04:48:58;;;;;;;9.74;7.45;;;;;;;2.42;70.56;99205.23;463494;112;922473;-69
2022/01/31 04:50:00;;;;;;;9.75;7.66;;;;;;;2.41;70.60;99203.56;463358;112;923631;-69
2022/01/31 04:51:03;;;;;;;10.87;7.82;;;;;;;2.40;70.65;99201.90;463418;112;930493;-69
2022/01/31 04:52:06;;;;;;;9.84;8.11;;;;;;;2.40;70.63;99203.75;463769;112;930610;-69
2022/01/31 04:53:10;;;;;;;11.29;7.59;;;;;;;2.39;70.67;99207.47;463526;112;922546;-69
2022/01/31 04:54:13;;;;;;;13.65;7.62;;;;;;;2.38;70.68;99212.01;464466;112;923025;-70
2022/01/31 04:55:16;;;;;;;10.48;7.63;;;;;;;2.39;70.75;99204.77;463644;112;922599;-71
2022/01/31 04:56:20;;;;;;;13.42;8.26;;;;;;;2.38;70.72;99203.94;463794;112;923340;-72
2022/01/31 04:57:23;;;;;;;10.11;7.45;;;;;;;2.39;70.81;99199.39;463394;112;930631;-70
2022/01/31 04:58:26;;;;;;;8.78;7.31;;;;;;;2.38;70.80;99206.63;463232;112;922588;-70
2022/01/31 04:59:29;;;;;;;10.85;6.85;;;;;;;2.37;70.74;99204.96;463352;112;922555;-70
2022/01/31 05:00:32;;;;;;;10.00;8.03;;;;;;;2.36;70.74;99205.18;463013;112;923473;-71
2022/01/31 05:01:39;;;;;;;9.14;7.04;;;;;;;2.36;70.85;99207.87;463759;112;922652;-69
2022/01/31 05:02:41;;;;;;;9.57;7.15;;;;;;;2.35;70.87;99204.34;462858;112;922875;-71
2022/01/31 05:03:46;;;;;;;7.59;6.51;;;;;;;2.37;70.87;99196.89;464292;112;923066;-69
2022/01/31 05:04:48;;;;;;;9.52;6.21;;;;;;;2.38;70.88;99205.80;463742;112;922607;-71